logo
App data

Distant Space

Distant Space are present the arcade game of cosmic fights in arcade style of the 80's, this is a game where you can control the spaceship and forced to destroy extraterrestrials, which are moving in the certain order.
Store | Hub | SteamDB
Developer: PixelMouse Publisher: PixelMouse
Genre: Action, Adventure, Casual, Indie
Languages: English
Tags: Casual (34), Indie (26), Action (23), Adventure (21), Arcade (5), Shoot 'Em Up (5)
Category: Single-player, Steam Achievements, Full controller support, Steam Trading Cards
Release date: Dec 20, 2016
Price: $0.49 51%
Old userscore: 77% Owners: 50,000 .. 100,000
Followers: 208
Peak concurrent players yesterday: 1
Playtime total: 07:15 (average) 07:25 (median)

Steam Spy is still in beta, so expect major bugs.

Owners data:

Access restricted.

This feature is only available to users with special access rights. Sorry.

If you want to proceed, you need to register or log in first and then back Steam Spy on Patreon. Look for Indie or Pro pledge.

Don't forget to use the same email as on Steam Spy!

Audience in 2 weeks:

Access restricted.

This feature is only available to users with special access rights. Sorry.

If you want to proceed, you need to register or log in first and then back Steam Spy on Patreon. Look for Indie or Pro pledge.

Don't forget to use the same email as on Steam Spy!

Peak daily concurrent players:

CCU data courtesy of SteamDB. Used with permission.

Hourly concurrent players:

Followers over time

Access restricted.

This feature is only available to users with special access rights. Sorry.

If you want to proceed, you need to register or log in first and then back Steam Spy on Patreon. Look for Indie or Pro pledge.

Don't forget to use the same email as on Steam Spy!

Views for top 50 videos on YouTube for this game:

YouTube's Terms of Service

The views data is based on top 50 videos uploaded last week. Actual number of views might be more than the number shown.

If the game has commonly used word as its name (like "FEAR" or "Volume") its number of Youtube views might be wrong.

Games similar to this one:

# Game Release date
Price
Score rank
(Userscore / Metascore)
Owners
Players
Playtime (Median)
1 Journal Feb 17, 2014 $9.99N/A (N/A/59%)20,000 .. 50,0000%00:00 (00:00)
2 Rabbit Hole 3D: Steam Edition Apr 25, 2014 $2.99N/A (N/A)50,000 .. 100,0000%00:00 (00:00)
3 STARWHAL Sep 29, 2014 $11.99N/A (N/A)50,000 .. 100,0000%00:00 (00:00)
4 Kromaia Oct 23, 2014 $19.99N/A (N/A/68%)20,000 .. 50,0000%00:00 (00:00)
5 Full Bore May 6, 2014 $14.99N/A (N/A/72%)20,000 .. 50,0000%00:00 (00:00)
6 ReignMaker Apr 16, 2014 $14.99N/A (N/A)50,000 .. 100,0000%00:00 (00:00)
7 Montas Mar 24, 2014 $9.99N/A (N/A)20,000 .. 50,0000%00:00 (00:00)
8 Actual Sunlight Apr 3, 2014 $4.99N/A (N/A/77%)20,000 .. 50,0000%00:00 (00:00)
9 10 Second Ninja Mar 5, 2014 $1.99N/A (N/A/72%)50,000 .. 100,0000%00:00 (00:00)
10 Volt Apr 14, 2014 $0.99N/A (N/A)50,000 .. 100,0000%00:00 (00:00)
11 Labyrinthine Dreams May 26, 2015 $1.99N/A (N/A)50,000 .. 100,0000%00:00 (00:00)
12 Montague's Mount Nov 19, 2013 $4.99N/A (N/A/39%)20,000 .. 50,0000%00:00 (00:00)
13 Pulstar Jun 11, 2014 $1.99N/A (N/A)0 .. 20,0000%00:00 (00:00)
14 Ballpoint Universe - Infinite Dec 17, 2013 $3.99N/A (N/A)100,000 .. 200,0000%00:00 (00:00)
15 T.E.C. 3001 Apr 10, 2014 N/AN/A (N/A)20,000 .. 50,0000%00:00 (00:00)
16 Drifter Mar 4, 2014 $11.99N/A (N/A)0 .. 20,0000%00:00 (00:00)
17 Munin Jun 10, 2014 $4.99N/A (N/A/68%)100,000 .. 200,0000%00:00 (00:00)
18 Dinosaur Forest May 17, 2017 $1.99N/A (N/A)50,000 .. 100,0000%00:00 (00:00)
19 Beater Spirit Jun 1, 2016 $5.99N/A (N/A)100,000 .. 200,0000%00:00 (00:00)
20 Aircraft War X Aug 5, 2016 $0.99N/A (N/A)200,000 .. 500,0000%00:00 (00:00)
21 Star Drifter Jun 1, 2016 $0.99N/A (N/A)200,000 .. 500,0000%00:00 (00:00)
22 Joana's Life Sep 1, 2016 $5.99N/A (N/A)50,000 .. 100,0000%00:00 (00:00)
23 Call Of The Mighty Warriors Jun 2, 2016 $0.99N/A (N/A)50,000 .. 100,00033.33%24:41 (08:13)
24 It Comes Around - A Kinetic Novel Sep 29, 2016 $2.99N/A (N/A)20,000 .. 50,0000%00:00 (00:00)
25 Karma Miwa Aug 12, 2016 $0.99N/A (N/A)20,000 .. 50,0000%00:00 (00:00)
26 Brave Dungeon Sep 2, 2016 $0.99N/A (N/A)50,000 .. 100,0000%00:00 (00:00)
27 Super Duper Party Pooper Jun 6, 2016 $0.99N/A (N/A/40%)100,000 .. 200,0000%00:00 (00:00)
28 Starship Annihilator Sep 2, 2016 $0.99N/A (N/A)100,000 .. 200,00022.22%04:44 (03:09)
29 DashBored Jun 13, 2016 $4.99N/A (N/A)0 .. 20,0000%00:00 (00:00)
30 Scanner Sombre Apr 26, 2017 $5.99N/A (N/A/67%)100,000 .. 200,0000%00:00 (00:00)
31 Robot Legions Reborn Jul 19, 2016 $2.99N/A (N/A)20,000 .. 50,0000%00:00 (00:00)
32 ORCS May 20, 2016 $1.99N/A (N/A)20,000 .. 50,0000%00:00 (00:00)
33 Bye-Bye, Wacky Planet Nov 4, 2016 $3.99N/A (N/A)200,000 .. 500,0000%00:00 (00:00)
34 Overhell May 28, 2016 $1.99N/A (N/A)100,000 .. 200,0000%00:00 (00:00)
35 NEON STRUCT May 20, 2015 $17.99N/A (N/A/62%)50,000 .. 100,0000%00:00 (00:00)
36 Road Not Taken Aug 5, 2014 $14.99N/A (N/A/75%)50,000 .. 100,0000%00:00 (00:00)
37 Heroes Rise: HeroFall Jul 11, 2014 $3.99N/A (N/A)0 .. 20,0000%00:00 (00:00)
38 Pivvot Jul 14, 2014 $4.99N/A (N/A)0 .. 20,0000%00:00 (00:00)
39 The Masterplan Jun 4, 2015 $19.99N/A (N/A/68%)100,000 .. 200,0000%00:00 (00:00)
40 Dreaming Sarah Mar 12, 2015 $5.99N/A (N/A)100,000 .. 200,0000%00:00 (00:00)
41 A City Sleeps Oct 16, 2014 $9.99N/A (N/A)20,000 .. 50,0000%00:00 (00:00)
42 Captain Forever Remix Jun 3, 2016 $9.99N/A (N/A)20,000 .. 50,0000%00:00 (00:00)
43 Velocibox Sep 8, 2014 $4.99N/A (N/A)50,000 .. 100,0000%00:00 (00:00)
44 Frederic: Resurrection of Music May 16, 2014 $2.99N/A (N/A)100,000 .. 200,0000%00:00 (00:00)
45 Squishy the Suicidal Pig Oct 23, 2014 $5.99N/A (N/A)200,000 .. 500,0003.57%00:10 (00:03)
46 Frederic: Evil Strikes Back May 23, 2014 $7.99N/A (N/A)100,000 .. 200,0000%00:00 (00:00)
47 Three Dead Zed Jul 7, 2014 $5.99N/A (N/A)50,000 .. 100,00011.11%01:51 (00:37)
48 Rhythm Destruction Jun 16, 2014 $4.99N/A (N/A)50,000 .. 100,0000%00:00 (00:00)
49 Uriel's Chasm Sep 12, 2014 $4.99N/A (N/A)200,000 .. 500,0000%00:00 (00:00)
50 Back to Bed Aug 6, 2014 $5.99N/A (N/A)1,000,000 .. 2,000,0000%00:00 (00:00)
51 Cosmochoria Apr 27, 2015 $9.99N/A (N/A)20,000 .. 50,0000%00:00 (00:00)
52 VoxreD Sep 30, 2016 $0.99N/A (N/A)100,000 .. 200,0000%00:00 (00:00)
53 Mistwood Heroes Dec 30, 2016 $0.99N/A (N/A)20,000 .. 50,0000%00:00 (00:00)
54 BoomTown! Deluxe Oct 14, 2016 $1.99N/A (N/A)20,000 .. 50,0000%00:00 (00:00)
55 Project LUX Feb 2, 2018 $24.99N/A (N/A)0 .. 20,0000%00:00 (00:00)
56 Pixel Gladiator Sep 8, 2017 $4.99N/A (N/A)20,000 .. 50,0000%00:00 (00:00)
57 GORN Jul 18, 2019 $19.99N/A (N/A/85%)200,000 .. 500,0000%00:00 (00:00)
58 Snake Pass Mar 28, 2017 $19.99N/A (N/A/71%)100,000 .. 200,0000%00:00 (00:00)
59 Guns of Icarus Alliance Mar 31, 2017 $4.99N/A (N/A)50,000 .. 100,0000%00:00 (00:00)
60 Sleight Nov 9, 2016 $0.99N/A (N/A)100,000 .. 200,0000%00:00 (00:00)
61 The Archotek Project Apr 28, 2017 $4.99N/A (N/A)50,000 .. 100,0000%00:00 (00:00)
62 Wayout Nov 4, 2016 $0.99N/A (N/A)50,000 .. 100,0000%00:00 (00:00)
63 Phantom Soldier Mar 29, 2017 $4.99N/A (N/A)100,000 .. 200,0000%00:00 (00:00)
64 Zolg Dec 2, 2016 $0.49N/A (N/A)20,000 .. 50,0000%00:00 (00:00)
65 Night Forest Nov 8, 2016 $3.99N/A (N/A)20,000 .. 50,0000%00:00 (00:00)
66 Witch It May 31, 2017 $14.99N/A (N/A)200,000 .. 500,0003.85%03:50 (01:16)
67 mr.President Prologue Episode Sep 20, 2016 $0.99N/A (N/A)50,000 .. 100,0000%00:00 (00:00)
68 Introvert Quest Mar 15, 2017 $4.99N/A (N/A)100,000 .. 200,0000%00:00 (00:00)
69 On A Roll 3D Feb 12, 2015 $3.99N/A (N/A)50,000 .. 100,0000%00:00 (00:00)
70 Tulpa Jan 29, 2015 $2.99N/A (N/A)50,000 .. 100,0000%00:00 (00:00)
71 Glorkian Warrior: The Trials Of Glork Mar 24, 2015 $3.99N/A (N/A)20,000 .. 50,0000%00:00 (00:00)
72 Phoenix Force Nov 13, 2014 $3.99N/A (N/A)50,000 .. 100,0000%00:00 (00:00)
73 It came from space and ate our brains Mar 19, 2015 N/AN/A (N/A)50,000 .. 100,0000%00:00 (00:00)
74 Marvin's Mittens Dec 17, 2014 $5.99N/A (N/A)0 .. 20,0000%00:00 (00:00)
75 Reflections Jun 26, 2015 $9.99N/A (N/A)0 .. 20,0000%00:00 (00:00)
76 Dwarf Tower Dec 23, 2014 $0.99N/A (N/A)20,000 .. 50,0000%00:00 (00:00)
77 NEO AQUARIUM - The King of Crustaceans - Jun 8, 2015 $8.99N/A (N/A)20,000 .. 50,0000%00:00 (00:00)
78 Sky Mercenaries Dec 16, 2014 $9.99N/A (N/A)20,000 .. 50,0000%00:00 (00:00)
79 Centauri Sector Jun 23, 2015 $4.99N/A (N/A)20,000 .. 50,0000%00:00 (00:00)
80 Chronicles of a Dark Lord: Episode 1 Tides of Fate Complete Dec 19, 2014 $0.99N/A (N/A)50,000 .. 100,0000%00:00 (00:00)
81 Great Permutator Sep 15, 2014 $6.99N/A (N/A)20,000 .. 50,0000%00:00 (00:00)
82 Bermuda Mar 17, 2015 $2.99N/A (N/A)50,000 .. 100,0000%00:00 (00:00)
83 Horizon Shift May 29, 2015 $4.99N/A (N/A)200,000 .. 500,0000%00:00 (00:00)
84 Ukrainian Ninja Dec 23, 2014 FreeN/A (N/A)20,000 .. 50,0000%00:00 (00:00)
85 The Deer God Feb 27, 2015 $14.99N/A (N/A/59%)20,000 .. 50,0000%00:00 (00:00)
86 Outrunner Apr 12, 2017 $0.49N/A (N/A)20,000 .. 50,0000%00:00 (00:00)
87 Western Press Apr 21, 2016 $4.99N/A (N/A)20,000 .. 50,0000%00:00 (00:00)
88 Hare In The Hat Apr 1, 2015 $1.99N/A (N/A)50,000 .. 100,0000%00:00 (00:00)
89 Sky Rogue Aug 24, 2017 $19.99N/A (N/A)50,000 .. 100,0000%00:00 (00:00)
90 Spellsworn Mar 13, 2018 FreeN/A (N/A)200,000 .. 500,00010%335:40 (111:53)
91 Orion Trail Oct 12, 2015 $7.99N/A (N/A)0 .. 20,0000%00:00 (00:00)
92 Luna Sky Oct 2, 2015 $12.99N/A (N/A)50,000 .. 100,0000%00:00 (00:00)
93 Action Alien Jun 26, 2015 $3.99N/A (N/A)50,000 .. 100,0000%00:00 (00:00)
94 Dustbowl May 18, 2015 $8.99N/A (N/A)0 .. 20,0000%00:00 (00:00)
95 Dead In Bermuda Aug 27, 2015 $14.99N/A (N/A)20,000 .. 50,0000%00:00 (00:00)
96 Season of 12 Colors Mar 14, 2016 $2.99N/A (N/A)20,000 .. 50,0000%00:00 (00:00)
97 Aviary Attorney Dec 21, 2015 $14.99N/A (N/A/77%)50,000 .. 100,0000%00:00 (00:00)
98 Football, Tactics & Glory Jun 1, 2018 $24.99N/A (N/A)20,000 .. 50,0000%00:00 (00:00)
99 Beyond Eyes Aug 11, 2015 $14.99N/A (N/A/60%)100,000 .. 200,0000%00:00 (00:00)
100 The Adventures of Mr. Bobley Jul 1, 2015 $3.99N/A (N/A)50,000 .. 100,0000%00:00 (00:00)
101 Orbit HD Mar 18, 2015 $1.99N/A (N/A)20,000 .. 50,0000%00:00 (00:00)
102 Monument Jun 5, 2015 $3.99N/A (N/A)20,000 .. 50,0000%00:00 (00:00)
103 Canabalt Apr 30, 2015 $2.99N/A (N/A)20,000 .. 50,0000%00:00 (00:00)
104 Home Aug 31, 2012 $4.99N/A (N/A/69%)200,000 .. 500,0000%00:00 (00:00)
105 SOL: Exodus Jan 25, 2012 $7.99N/A (N/A/57%)50,000 .. 100,0000%00:00 (00:00)
106 Ultratron Mar 18, 2013 $9.99N/A (N/A)100,000 .. 200,0000%00:00 (00:00)
107 Titan Attacks! Feb 3, 2012 $9.99N/A (N/A)100,000 .. 200,0000%00:00 (00:00)
108 Cargo Commander Nov 1, 2012 $2.99N/A (N/A)100,000 .. 200,0000%00:00 (00:00)
109 BIT.TRIP CORE Oct 2, 2012 $9.99N/A (N/A)20,000 .. 50,0000%00:00 (00:00)
110 Puddle Nov 9, 2012 $7.99N/A (N/A)100,000 .. 200,0000%00:00 (00:00)
111 Tales From Space: Mutant Blobs Attack Aug 15, 2012 $9.99N/A (N/A/83%)100,000 .. 200,0000%00:00 (00:00)
112 Papo & Yo Apr 18, 2013 $14.99N/A (N/A/70%)200,000 .. 500,0000%00:00 (00:00)
113 All Zombies Must Die!: Scorepocalypse Apr 19, 2012 $4.99N/A (N/A)20,000 .. 50,0000%00:00 (00:00)
114 Dream Jul 31, 2015 $8.99N/A (N/A/59%)50,000 .. 100,0000%00:00 (00:00)
115 Unmechanical Aug 8, 2012 $9.99N/A (N/A/74%)100,000 .. 200,0000%00:00 (00:00)
116 Critter Crunch Sep 11, 2012 $6.99N/A (N/A)0 .. 20,0000%00:00 (00:00)
117 Sugar Cube: Bittersweet Factory Nov 7, 2012 $6.99N/A (N/A)20,000 .. 50,0000%00:00 (00:00)
118 BIT.TRIP BEAT Nov 2, 2010 $9.99N/A (N/A)200,000 .. 500,0000%00:00 (00:00)
119 Party of Sin Dec 13, 2012 $5.99N/A (N/A)50,000 .. 100,0000%00:00 (00:00)
120 Super Splatters Jun 26, 2013 N/AN/A (N/A/73%)100,000 .. 200,0000%00:00 (00:00)
121 Cosmic Leap Mar 17, 2016 $0.99N/A (N/A)20,000 .. 50,0000%00:00 (00:00)
122 Wild Island Quest Sep 4, 2015 $1.99N/A (N/A)50,000 .. 100,0000%00:00 (00:00)
123 Godus Wars Feb 3, 2016 $14.99N/A (N/A)50,000 .. 100,0000%00:00 (00:00)
124 Kitchen Simulator 2015 Sep 2, 2015 $0.79N/A (N/A)50,000 .. 100,0000%00:00 (00:00)
125 Bell Ringer Mar 18, 2016 $6.99N/A (N/A)200,000 .. 500,0000%00:00 (00:00)
126 Press X to Not Die Oct 6, 2017 $0.74N/A (N/A)50,000 .. 100,0000%00:00 (00:00)
127 PERFECT ANGLE: The puzzle game based on optical illusions Dec 22, 2015 $9.99N/A (N/A)50,000 .. 100,0000%00:00 (00:00)
128 Club Life Apr 13, 2016 $11.99N/A (N/A)20,000 .. 50,0000%00:00 (00:00)
129 TurnOn Jun 1, 2016 $14.99N/A (N/A/67%)20,000 .. 50,0000%00:00 (00:00)
130 The Purring Quest Nov 12, 2015 $9.99N/A (N/A)50,000 .. 100,0000%00:00 (00:00)
131 IMSCARED Feb 3, 2016 $3.99N/A (N/A)20,000 .. 50,0000%00:00 (00:00)
132 Perraw - FPS Clone War Alpha Jan 29, 2016 $0.99N/A (N/A)0 .. 20,0000%00:00 (00:00)
133 none Nov 4, 2015 N/AN/A (N/A)20,000 .. 50,0000%00:00 (00:00)
134 Morphine Oct 28, 2015 $2.99N/A (N/A)50,000 .. 100,0000%00:00 (00:00)
135 Redemption: Eternal Quest Aug 28, 2015 $1.99N/A (N/A)100,000 .. 200,0000%00:00 (00:00)
136 Days Under Custody Nov 23, 2015 $4.99N/A (N/A)0 .. 20,0000%00:00 (00:00)
137 Blaster Shooter GunGuy! Aug 10, 2015 $1.99N/A (N/A)100,000 .. 200,0000%00:00 (00:00)
138 Maia Nov 23, 2018 $24.99N/A (N/A)50,000 .. 100,0000%00:00 (00:00)
139 Zack Zero Apr 29, 2013 $2.99N/A (N/A)50,000 .. 100,0000%00:00 (00:00)
140 FOTONICA Nov 6, 2014 $14.99N/A (N/A/71%)50,000 .. 100,0000%00:00 (00:00)
141 Element4l May 24, 2013 $8.99N/A (N/A/77%)50,000 .. 100,0000%00:00 (00:00)
142 Gentlemen! Nov 5, 2013 $4.99N/A (N/A)20,000 .. 50,0000%00:00 (00:00)
143 Super Puzzle Platformer Deluxe May 24, 2013 $7.99N/A (N/A)20,000 .. 50,0000%00:00 (00:00)
144 Escape Goat 2 Mar 24, 2014 $9.99N/A (N/A/76%)50,000 .. 100,0000%00:00 (00:00)
145 The Novelist Dec 10, 2013 $4.99N/A (N/A/66%)100,000 .. 200,0000%00:00 (00:00)
146 Signal Ops Nov 18, 2013 $9.99N/A (N/A/61%)0 .. 20,0000%00:00 (00:00)
147 Knytt Underground Oct 25, 2013 $6.99N/A (N/A)50,000 .. 100,0000%00:00 (00:00)
148 Survivor Squad Jan 21, 2015 $2.99N/A (N/A)100,000 .. 200,0008.33%00:43 (00:14)
149 Omegalodon Sep 20, 2013 $9.99N/A (N/A)20,000 .. 50,0000%00:00 (00:00)
150 Bad Hotel Oct 16, 2013 $4.99N/A (N/A)50,000 .. 100,0000%00:00 (00:00)
151 Escape Goat Jun 14, 2012 $4.99N/A (N/A)20,000 .. 50,0000%00:00 (00:00)
152 Godus N/AN/A (N/A)20,000 .. 50,0000%00:00 (00:00)
153 Solar Flux Oct 24, 2013 $9.99N/A (N/A)100,000 .. 200,0000%00:00 (00:00)
154 Wake $4.99N/A (N/A)0 .. 20,0000%00:00 (00:00)
155 Domino Sky Apr 5, 2016 $3.99N/A (N/A)50,000 .. 100,0000%00:00 (00:00)
156 Empire of the Gods Jan 27, 2016 $0.99N/A (N/A)0 .. 20,0000%00:00 (00:00)
157 Wrath of Anna Apr 2, 2018 $19.99N/A (N/A)50,000 .. 100,0000%00:00 (00:00)
158 Mindless Running Feb 18, 2016 $0.99N/A (N/A)50,000 .. 100,0000%00:00 (00:00)
159 NORTH Apr 27, 2016 $1.99N/A (N/A)200,000 .. 500,0000%00:00 (00:00)
160 Mimpi Dreams Mar 22, 2016 FreeN/A (N/A)20,000 .. 50,0000%00:00 (00:00)
161 Neon Space ULTRA Jun 1, 2016 $2.99N/A (N/A)50,000 .. 100,0000%00:00 (00:00)
162 Cubium Dreams Apr 29, 2016 $3.99N/A (N/A)20,000 .. 50,0000%00:00 (00:00)
163 上帝之城 I:监狱帝国 [City of God I - Prison Empire] Jul 9, 2018 $18.99N/A (N/A)50,000 .. 100,0000%00:00 (00:00)
164 Amigdala Mar 28, 2016 $5.99N/A (N/A)20,000 .. 50,0000%00:00 (00:00)
165 Can't Drive This Sep 25, 2016 $19.99N/A (N/A)0 .. 20,0000%00:00 (00:00)
166 Cube Land Arena Mar 29, 2016 $0.99N/A (N/A)20,000 .. 50,00033.33%08:42 (04:21)
167 Doodle Kingdom Jun 9, 2016 $8.99N/A (N/A)20,000 .. 50,0000%00:00 (00:00)
168 Hero Quest: Tower Conflict Apr 13, 2016 $0.99N/A (N/A)200,000 .. 500,0000%00:00 (00:00)
169 Evertown Jan 11, 2016 $1.99N/A (N/A)0 .. 20,0000%00:00 (00:00)
170 CrazyCars3D Jun 14, 2016 $2.99N/A (N/A)50,000 .. 100,0000%00:00 (00:00)
171 10 Second Ninja X Jul 19, 2016 $9.99N/A (N/A)20,000 .. 50,0000%00:00 (00:00)

Tags over time:

Access restricted.

This feature is only available to users with special access rights. Sorry.

If you want to proceed, you need to register or log in first and then back Steam Spy on Patreon. Look for Indie or Pro pledge.

Don't forget to use the same email as on Steam Spy!

Owners of this game also own:

Access restricted.

This feature is only available to users with special access rights. Sorry.

If you want to proceed, you need to register or log in first and then back Steam Spy on Patreon. Look for Indie or Pro pledge.

Don't forget to use the same email as on Steam Spy!

Playtime distribution:

Access restricted.

This feature is only available to users with special access rights. Sorry.

If you want to proceed, you need to register or log in first and then back Steam Spy on Patreon. Look for Indie or Pro pledge.

Don't forget to use the same email as on Steam Spy!

Playtime (2 weeks):

Access restricted.

This feature is only available to users with special access rights. Sorry.

If you want to proceed, you need to register or log in first and then back Steam Spy on Patreon. Look for Indie or Pro pledge.

Don't forget to use the same email as on Steam Spy!

User reviews:

Login required.

Please register or log in to see this information.